Time;durP1;ratioP1;P1;durP2;ratioP2;P2;SDS_P1;SDS_P2;PMS_P1;PMS_P2;Temp;Humidity;BMP_temperature;BMP_pressure;BME280_temperature;BME280_humidity;BME280_pressure;Samples;Min_cycle;Max_cycle;Signal;HPM_P1;HPM_P2
2022/06/07 00:06:57;;;;;;;9.5;12.2;;;;;;;-133;92.2;65230;;;;
2022/06/07 00:16:57;;;;;;;9.5;12.2;;;;;;;-133;94.7;65230;;;;
2022/06/07 00:26:57;;;;;;;9.5;12.2;;;;;;;-133;94.8;65220;;;;
2022/06/07 00:37:57;;;;;;;11.4;14.3;;;;;;;-133;97.2;65220;;;;
2022/06/07 00:47:57;;;;;;;11.4;14.3;;;;;;;-133;96.8;65220;;;;
2022/06/07 00:57:57;;;;;;;11.4;14.3;;;;;;;-133;98;65220;;;;
2022/06/07 01:19:57;;;;;;;11.4;14.2;;;;;;;-133;98.8;65220;;;;
2022/06/07 01:29:57;;;;;;;11.4;14.2;;;;;;;-133;98.5;65220;;;;
2022/06/07 01:42:01;;;;;;;10.1;15.2;;;;;;;-133;98.3;65220;;;;
2022/06/07 01:50:57;;;;;;;10.1;15.2;;;;;;;-133;97.7;65220;;;;
2022/06/07 02:00:57;;;;;;;10.1;15.2;;;;;;;-133;96.8;65220;;;;
2022/06/07 02:11:57;;;;;;;8.3;11.5;;;;;;;-133;96.6;65220;;;;
2022/06/07 02:21:57;;;;;;;8.3;11.5;;;;;;;-133;96.3;65220;;;;
2022/06/07 02:32:57;;;;;;;8.3;11.5;;;;;;;-133;97.7;65220;;;;
2022/06/07 02:43:57;;;;;;;7.9;12.5;;;;;;;-133;98.1;65230;;;;
2022/06/07 02:54:57;;;;;;;7.9;12.5;;;;;;;-133;98.1;65230;;;;
2022/06/07 03:04:57;;;;;;;8;9.7;;;;;;;-133;99.8;65230;;;;
2022/06/07 03:15:57;;;;;;;8;9.7;;;;;;;-133;99.1;65230;;;;
2022/06/07 03:26:57;;;;;;;8;9.7;;;;;;;-133;98.8;65230;;;;
2022/06/07 03:37:57;;;;;;;8.2;11.4;;;;;;;-133;98.7;65230;;;;
2022/06/07 03:48:57;;;;;;;8.2;11.4;;;;;;;-133;98.4;65230;;;;
2022/06/07 03:58:57;;;;;;;8.2;11.4;;;;;;;-133;97.2;65230;;;;
2022/06/07 04:08:57;;;;;;;9;11.4;;;;;;;-133;96.8;65230;;;;
2022/06/07 04:18:57;;;;;;;9;11.4;;;;;;;-133;96.1;65230;;;;
2022/06/07 04:28:57;;;;;;;9;11.4;;;;;;;-133;94.3;65230;;;;
2022/06/07 04:39:57;;;;;;;11.2;13.8;;;;;;;-133;92.8;65220;;;;
2022/06/07 04:50:57;;;;;;;11.2;13.8;;;;;;;-133;91.3;65230;;;;
2022/06/07 05:01:57;;;;;;;11.2;13.8;;;;;;;-133;90.3;65220;;;;
2022/06/07 05:11:58;;;;;;;10.6;15.6;;;;;;;-133;89.7;65220;;;;
2022/06/07 05:22:57;;;;;;;10.6;15.6;;;;;;;-133;87;65220;;;;
2022/06/07 05:32:57;;;;;;;10.6;15.6;;;;;;;-133;84.7;65220;;;;
2022/06/07 05:43:57;;;;;;;6.6;11.9;;;;;;;-133;81.8;65220;;;;
2022/06/07 05:53:57;;;;;;;6.6;11.9;;;;;;;-133;79.1;65220;;;;
2022/06/07 06:04:57;;;;;;;4.6;7.5;;;;;;;-133;77.8;65220;;;;
2022/06/07 06:14:57;;;;;;;4.6;7.5;;;;;;;-133;74.9;65220;;;;
2022/06/07 06:24:57;;;;;;;4.6;7.5;;;;;;;-133;72.8;65220;;;;
2022/06/07 06:35:57;;;;;;;3.9;9.6;;;;;;;-133;69.3;65220;;;;
2022/06/07 06:45:57;;;;;;;3.9;9.6;;;;;;;-133;67.5;65220;;;;
2022/06/07 06:56:57;;;;;;;3.9;9.6;;;;;;;-133;68.6;65220;;;;
2022/06/07 07:06:57;;;;;;;3.8;7.2;;;;;;;-133;64.9;65220;;;;
2022/06/07 07:17:57;;;;;;;3.8;7.2;;;;;;;-133;63.8;65220;;;;
2022/06/07 07:28:57;;;;;;;3.8;7.2;;;;;;;-133;64;65220;;;;
2022/06/07 07:39:57;;;;;;;3.2;5;;;;;;;-133;61.6;65220;;;;
2022/06/07 07:49:57;;;;;;;3.2;5;;;;;;;-133;59.2;65220;;;;
2022/06/07 08:00:57;;;;;;;3.2;5;;;;;;;-133;57.2;65220;;;;
2022/06/07 08:10:57;;;;;;;3.1;5.9;;;;;;;-133;55.3;65220;;;;
2022/06/07 08:20:57;;;;;;;3.1;5.9;;;;;;;-133;54.5;65220;;;;
2022/06/07 08:31:57;;;;;;;3.1;5.9;;;;;;;-133;53.9;65210;;;;
2022/06/07 08:41:57;;;;;;;2.3;4.5;;;;;;;-133;55.3;65210;;;;
2022/06/07 08:51:57;;;;;;;2.3;4.5;;;;;;;-133;52.6;65220;;;;
2022/06/07 09:01:57;;;;;;;2.3;4.5;;;;;;;-133;46.3;65210;;;;
2022/06/07 09:12:14;;;;;;;2.8;4.9;;;;;;;-133;48.9;65210;;;;
2022/06/07 09:22:57;;;;;;;2.8;4.9;;;;;;;-133;48.3;65210;;;;
2022/06/07 09:33:57;;;;;;;2.8;4.9;;;;;;;-133;47;65210;;;;
2022/06/07 09:43:57;;;;;;;2.6;5.6;;;;;;;-133;48.7;65210;;;;
2022/06/07 09:53:57;;;;;;;2.6;5.6;;;;;;;-133;49.9;65210;;;;
2022/06/07 10:04:57;;;;;;;2.6;5.6;;;;;;;-133;49.2;65210;;;;
2022/06/07 10:14:57;;;;;;;2.1;4.3;;;;;;;-133;48.2;65210;;;;
2022/06/07 10:24:57;;;;;;;2.1;4.3;;;;;;;-133;48.5;65210;;;;
2022/06/07 10:34:58;;;;;;;2.1;4.3;;;;;;;-133;46.1;65210;;;;
2022/06/07 10:44:57;;;;;;;2.2;5.7;;;;;;;-133;45.1;65220;;;;
2022/06/07 10:55:59;;;;;;;2.2;5.7;;;;;;;-133;44.8;65220;;;;
2022/06/07 11:15:57;;;;;;;1.8;4.1;;;;;;;-133;44.9;65220;;;;
2022/06/07 11:25:57;;;;;;;1.8;4.1;;;;;;;-133;43.2;65210;;;;
2022/06/07 11:35:57;;;;;;;2.3;5.3;;;;;;;-133;43.1;65220;;;;
2022/06/07 11:46:57;;;;;;;2.3;5.3;;;;;;;-133;43.5;65210;;;;
2022/06/07 11:56:57;;;;;;;2.3;5.3;;;;;;;-133;44.2;65220;;;;
2022/06/07 12:06:57;;;;;;;2.5;4.5;;;;;;;-133;43.4;65210;;;;
2022/06/07 12:17:58;;;;;;;2.5;4.5;;;;;;;-133;42.5;65220;;;;
2022/06/07 12:27:57;;;;;;;2.5;4.5;;;;;;;-133;42.2;65220;;;;
2022/06/07 12:38:57;;;;;;;2.4;5.2;;;;;;;-133;41.7;65220;;;;
2022/06/07 12:48:57;;;;;;;2.4;5.2;;;;;;;-133;39.6;65220;;;;
2022/06/07 13:00:00;;;;;;;2.4;5.2;;;;;;;-133;42.4;65220;;;;
2022/06/07 13:10:57;;;;;;;2.5;4.8;;;;;;;-133;42.8;65220;;;;
2022/06/07 13:20:57;;;;;;;2.5;4.8;;;;;;;-133;42.1;65220;;;;
2022/06/07 13:30:57;;;;;;;2.5;4.8;;;;;;;-133;41.2;65220;;;;
2022/06/07 13:40:57;;;;;;;2.7;5.8;;;;;;;-133;46;65220;;;;
2022/06/07 14:01:57;;;;;;;2.7;5.8;;;;;;;-133;47.1;65220;;;;
2022/06/07 14:12:58;;;;;;;3.5;7.3;;;;;;;-133;48.6;65230;;;;
2022/06/07 14:23:57;;;;;;;3.5;7.3;;;;;;;-133;50.9;65230;;;;
2022/06/07 14:33:57;;;;;;;3.5;7.3;;;;;;;-133;53.8;65230;;;;
2022/06/07 14:43:57;;;;;;;4.2;7.7;;;;;;;-133;56.1;65230;;;;
2022/06/07 14:54:57;;;;;;;4.2;7.7;;;;;;;-133;57.8;65230;;;;
2022/06/07 15:04:57;;;;;;;4.2;7.7;;;;;;;-133;58.7;65240;;;;
2022/06/07 15:14:57;;;;;;;4.4;7.4;;;;;;;-133;59.7;65240;;;;
2022/06/07 15:24:57;;;;;;;4.4;7.4;;;;;;;-133;59.6;65240;;;;
2022/06/07 15:34:57;;;;;;;4.4;7.4;;;;;;;-133;59;65230;;;;
2022/06/07 15:45:57;;;;;;;4.5;7.8;;;;;;;-133;55.4;65230;;;;
2022/06/07 15:55:57;;;;;;;4.5;7.8;;;;;;;-133;58.6;65240;;;;
2022/06/07 16:05:57;;;;;;;5.5;9.6;;;;;;;-133;60.1;65240;;;;
2022/06/07 16:15:57;;;;;;;5.5;9.6;;;;;;;-133;60.6;65240;;;;
2022/06/07 16:26:57;;;;;;;5.5;9.6;;;;;;;-133;62.4;65240;;;;
2022/06/07 16:37:57;;;;;;;8.1;12.4;;;;;;;-133;64.3;65240;;;;
2022/06/07 16:48:57;;;;;;;8.1;12.4;;;;;;;-133;67.6;65240;;;;
2022/06/07 16:58:59;;;;;;;8.1;12.4;;;;;;;-133;69.9;65240;;;;
2022/06/07 17:09:59;;;;;;;6.5;9.9;;;;;;;-133;74.9;65240;;;;
2022/06/07 17:20:57;;;;;;;6.5;9.9;;;;;;;-133;76.7;65240;;;;
2022/06/07 17:30:57;;;;;;;6.5;9.9;;;;;;;-133;79.7;65240;;;;
2022/06/07 17:40:57;;;;;;;7.7;10.2;;;;;;;-133;81.6;65240;;;;
2022/06/07 17:50:57;;;;;;;7.7;10.2;;;;;;;-133;80.7;65240;;;;
2022/06/07 18:00:57;;;;;;;7.7;10.2;;;;;;;-133;81.6;65240;;;;
2022/06/07 18:11:57;;;;;;;5.9;9.7;;;;;;;-133;83.1;65240;;;;
2022/06/07 18:21:57;;;;;;;5.9;9.7;;;;;;;-133;85;65240;;;;
2022/06/07 18:32:57;;;;;;;5.9;9.7;;;;;;;-133;89.1;65230;;;;
2022/06/07 18:43:57;;;;;;;5.2;8.2;;;;;;;-133;91.4;65230;;;;
2022/06/07 18:53:57;;;;;;;5.2;8.2;;;;;;;-133;92;65230;;;;
2022/06/07 19:03:57;;;;;;;5.2;8.2;;;;;;;-133;93.5;65230;;;;
2022/06/07 19:14:57;;;;;;;5.9;8.4;;;;;;;-133;94.1;65230;;;;
2022/06/07 19:26:00;;;;;;;5.9;8.4;;;;;;;-133;95.7;65230;;;;
2022/06/07 19:35:57;;;;;;;7.3;10.7;;;;;;;-133;95.7;65230;;;;
2022/06/07 19:46:57;;;;;;;7.3;10.7;;;;;;;-133;96.7;65230;;;;
2022/06/07 19:56:57;;;;;;;7.3;10.7;;;;;;;-133;96.8;65220;;;;
2022/06/07 20:07:57;;;;;;;6.3;9.9;;;;;;;-133;96.7;65220;;;;
2022/06/07 20:18:58;;;;;;;6.3;9.9;;;;;;;-133;97.5;65220;;;;
2022/06/07 20:28:57;;;;;;;6.3;9.9;;;;;;;-133;97.7;65220;;;;
2022/06/07 20:38:58;;;;;;;7.5;10.9;;;;;;;-133;97.8;65220;;;;
2022/06/07 20:49:57;;;;;;;7.5;10.9;;;;;;;-133;96.9;65220;;;;
2022/06/07 21:00:57;;;;;;;7.5;10.9;;;;;;;-133;96.3;65220;;;;
2022/06/07 21:10:57;;;;;;;8.6;11;;;;;;;-133;96.7;65220;;;;
2022/06/07 21:21:57;;;;;;;8.6;11;;;;;;;-133;98.8;65220;;;;
2022/06/07 21:31:57;;;;;;;8.6;11;;;;;;;-133;99.5;65210;;;;
2022/06/07 21:41:57;;;;;;;14.2;17.4;;;;;;;-133;99.4;65210;;;;
2022/06/07 21:52:57;;;;;;;14.2;17.4;;;;;;;-133;99.7;65210;;;;
2022/06/07 22:03:57;;;;;;;14.2;17.4;;;;;;;-133;100;65210;;;;
2022/06/07 22:13:57;;;;;;;12.6;17.2;;;;;;;-133;100;65210;;;;
2022/06/07 22:23:57;;;;;;;12.6;17.2;;;;;;;-133;100;65210;;;;
2022/06/07 22:33:57;;;;;;;12.6;17.2;;;;;;;-133;100;65210;;;;
2022/06/07 22:44:57;;;;;;;17.5;19.7;;;;;;;-133;100;65210;;;;
2022/06/07 22:54:57;;;;;;;17.5;19.7;;;;;;;-133;100;65210;;;;
2022/06/07 23:05:57;;;;;;;19.2;21.5;;;;;;;-133;100;65210;;;;
2022/06/07 23:17:29;;;;;;;19.2;21.5;;;;;;;-133;100;65210;;;;
2022/06/07 23:26:57;;;;;;;19.2;21.5;;;;;;;-133;100;65210;;;;
2022/06/07 23:37:57;;;;;;;19.1;23.9;;;;;;;-133;100;65210;;;;
2022/06/07 23:48:58;;;;;;;19.1;23.9;;;;;;;-133;100;65210;;;;
2022/06/07 23:58:57;;;;;;;19.1;23.9;;;;;;;-133;100;65200;;;;
